sensor_id;sensor_type;location;lat;lon;timestamp;pressure;altitude;pressure_sealevel;temperature;humidity
6435;BME280;3250;42.694;23.278;2023-03-11T00:00:57;93058.25;;;11.55;94.55
6435;BME280;3250;42.694;23.278;2023-03-11T00:03:22;93061.41;;;11.52;93.61
6435;BME280;3250;42.694;23.278;2023-03-11T00:05:49;93087.50;;;11.54;93.28
6435;BME280;3250;42.694;23.278;2023-03-11T00:08:17;93043.97;;;11.31;93.44
6435;BME280;3250;42.694;23.278;2023-03-11T00:10:44;93025.97;;;11.08;93.83
6435;BME280;3250;42.694;23.278;2023-03-11T00:13:13;93072.16;;;11.30;94.55
6435;BME280;3250;42.694;23.278;2023-03-11T00:15:40;93070.53;;;11.19;95.24
6435;BME280;3250;42.694;23.278;2023-03-11T00:18:06;93060.25;;;11.13;95.14
6435;BME280;3250;42.694;23.278;2023-03-11T00:20:34;93025.69;;;10.99;95.13
6435;BME280;3250;42.694;23.278;2023-03-11T00:23:01;93056.81;;;11.17;94.93
6435;BME280;3250;42.694;23.278;2023-03-11T00:25:33;93060.25;;;11.13;94.70
6435;BME280;3250;42.694;23.278;2023-03-11T00:27:58;93049.97;;;11.11;95.00
6435;BME280;3250;42.694;23.278;2023-03-11T00:30:24;93028.31;;;10.94;94.56
6435;BME280;3250;42.694;23.278;2023-03-11T00:32:52;93045.19;;;10.98;95.06
6435;BME280;3250;42.694;23.278;2023-03-11T00:35:21;93028.06;;;11.01;95.51
6435;BME280;3250;42.694;23.278;2023-03-11T00:37:47;93033.34;;;10.95;94.51
6435;BME280;3250;42.694;23.278;2023-03-11T00:40:15;93029.31;;;10.78;94.40
6435;BME280;3250;42.694;23.278;2023-03-11T00:42:41;93024.47;;;10.54;95.55
6435;BME280;3250;42.694;23.278;2023-03-11T00:45:07;93030.72;;;10.48;96.66
6435;BME280;3250;42.694;23.278;2023-03-11T00:47:32;93030.47;;;10.50;96.56
6435;BME280;3250;42.694;23.278;2023-03-11T00:49:58;93025.53;;;10.58;96.66
6435;BME280;3250;42.694;23.278;2023-03-11T00:52:23;93015.63;;;10.76;96.32
6435;BME280;3250;42.694;23.278;2023-03-11T00:54:48;93003.53;;;10.80;96.48
6435;BME280;3250;42.694;23.278;2023-03-11T00:57:14;92995.69;;;10.95;96.02
6435;BME280;3250;42.694;23.278;2023-03-11T00:59:39;92959.31;;;10.72;95.99
6435;BME280;3250;42.694;23.278;2023-03-11T01:02:04;92983.56;;;10.94;95.20
6435;BME280;3250;42.694;23.278;2023-03-11T01:04:30;92949.56;;;10.72;94.82
6435;BME280;3250;42.694;23.278;2023-03-11T01:06:55;92970.91;;;10.81;94.73
6435;BME280;3250;42.694;23.278;2023-03-11T01:09:21;92986.69;;;10.86;95.30
6435;BME280;3250;42.694;23.278;2023-03-11T01:11:46;92985.91;;;10.90;95.70
6435;BME280;3250;42.694;23.278;2023-03-11T01:14:12;92989.63;;;10.94;95.86
6435;BME280;3250;42.694;23.278;2023-03-11T01:16:37;92987.78;;;10.95;95.69
6435;BME280;3250;42.694;23.278;2023-03-11T01:19:03;92954.03;;;10.82;95.77
6435;BME280;3250;42.694;23.278;2023-03-11T01:21:28;92956.16;;;10.85;95.34
6435;BME280;3250;42.694;23.278;2023-03-11T01:23:53;92941.16;;;10.80;95.01
6435;BME280;3250;42.694;23.278;2023-03-11T01:26:19;92947.75;;;10.93;95.34
6435;BME280;3250;42.694;23.278;2023-03-11T01:28:44;92922.50;;;10.92;95.86
6435;BME280;3250;42.694;23.278;2023-03-11T01:31:10;92904.84;;;10.87;95.27
6435;BME280;3250;42.694;23.278;2023-03-11T01:33:35;92914.84;;;10.90;95.76
6435;BME280;3250;42.694;23.278;2023-03-11T01:36:01;92900.63;;;10.81;95.98
6435;BME280;3250;42.694;23.278;2023-03-11T01:38:26;92916.97;;;10.88;95.81
6435;BME280;3250;42.694;23.278;2023-03-11T01:40:52;92904.31;;;10.80;95.84
6435;BME280;3250;42.694;23.278;2023-03-11T01:46:23;92914.84;;;10.85;95.23
6435;BME280;3250;42.694;23.278;2023-03-11T01:48:51;92921.16;;;10.84;95.32
6435;BME280;3250;42.694;23.278;2023-03-11T01:51:26;92906.13;;;10.75;95.22
6435;BME280;3250;42.694;23.278;2023-03-11T01:53:53;92935.88;;;10.70;95.47
6435;BME280;3250;42.694;23.278;2023-03-11T01:56:20;92966.94;;;10.78;95.53
6435;BME280;3250;42.694;23.278;2023-03-11T01:58:47;92925.78;;;10.47;96.37
6435;BME280;3250;42.694;23.278;2023-03-11T02:01:16;92922.94;;;10.58;95.58
6435;BME280;3250;42.694;23.278;2023-03-11T02:03:43;92936.41;;;10.77;95.35
6435;BME280;3250;42.694;23.278;2023-03-11T02:06:13;92945.91;;;10.83;95.21
6435;BME280;3250;42.694;23.278;2023-03-11T02:08:40;92941.72;;;10.87;95.18
6435;BME280;3250;42.694;23.278;2023-03-11T02:11:09;92956.66;;;10.77;94.98
6435;BME280;3250;42.694;23.278;2023-03-11T02:13:36;92936.91;;;10.74;95.56
6435;BME280;3250;42.694;23.278;2023-03-11T02:16:04;92957.22;;;10.79;95.13
6435;BME280;3250;42.694;23.278;2023-03-11T02:18:30;92963.00;;;10.81;94.79
6435;BME280;3250;42.694;23.278;2023-03-11T02:23:56;92964.03;;;10.75;94.74
6435;BME280;3250;42.694;23.278;2023-03-11T02:29:17;92971.13;;;10.74;94.07
6435;BME280;3250;42.694;23.278;2023-03-11T02:31:44;92980.38;;;10.82;93.31
6435;BME280;3250;42.694;23.278;2023-03-11T02:34:16;92986.84;;;10.54;93.00
6435;BME280;3250;42.694;23.278;2023-03-11T02:36:45;92978.44;;;10.57;94.31
6435;BME280;3250;42.694;23.278;2023-03-11T02:39:10;92980.56;;;10.65;93.72
6435;BME280;3250;42.694;23.278;2023-03-11T02:41:39;92984.03;;;10.76;92.92
6435;BME280;3250;42.694;23.278;2023-03-11T02:44:07;92983.00;;;10.77;92.82
6435;BME280;3250;42.694;23.278;2023-03-11T02:46:35;92971.91;;;10.70;92.30
6435;BME280;3250;42.694;23.278;2023-03-11T02:49:04;92975.63;;;10.79;90.65
6435;BME280;3250;42.694;23.278;2023-03-11T02:51:30;92966.94;;;10.83;88.83
6435;BME280;3250;42.694;23.278;2023-03-11T02:53:58;92979.13;;;11.05;87.10
6435;BME280;3250;42.694;23.278;2023-03-11T02:56:25;92975.44;;;11.16;86.70
6435;BME280;3250;42.694;23.278;2023-03-11T02:58:51;92973.38;;;11.28;86.64
6435;BME280;3250;42.694;23.278;2023-03-11T03:01:16;92983.66;;;11.34;85.27
6435;BME280;3250;42.694;23.278;2023-03-11T03:03:42;92954.16;;;11.32;84.92
6435;BME280;3250;42.694;23.278;2023-03-11T03:06:07;92978.94;;;11.47;85.12
6435;BME280;3250;42.694;23.278;2023-03-11T03:08:33;92983.97;;;11.58;84.15
6435;BME280;3250;42.694;23.278;2023-03-11T03:10:58;92981.06;;;11.65;84.09
6435;BME280;3250;42.694;23.278;2023-03-11T03:13:25;92990.56;;;11.66;83.67
6435;BME280;3250;42.694;23.278;2023-03-11T03:15:51;92976.81;;;11.54;83.76
6435;BME280;3250;42.694;23.278;2023-03-11T03:18:16;92979.75;;;11.57;83.55
6435;BME280;3250;42.694;23.278;2023-03-11T03:20:42;92979.72;;;11.62;82.64
6435;BME280;3250;42.694;23.278;2023-03-11T03:23:08;92977.38;;;11.56;82.73
6435;BME280;3250;42.694;23.278;2023-03-11T03:25:33;92986.06;;;11.66;83.02
6435;BME280;3250;42.694;23.278;2023-03-11T03:27:58;92989.22;;;11.63;83.28
6435;BME280;3250;42.694;23.278;2023-03-11T03:30:24;92955.47;;;11.50;82.61
6435;BME280;3250;42.694;23.278;2023-03-11T03:32:49;92978.41;;;11.60;81.31
6435;BME280;3250;42.694;23.278;2023-03-11T03:35:15;92972.63;;;11.63;81.44
6435;BME280;3250;42.694;23.278;2023-03-11T03:37:40;92988.16;;;11.64;80.55
6435;BME280;3250;42.694;23.278;2023-03-11T03:40:06;92977.88;;;11.48;79.16
6435;BME280;3250;42.694;23.278;2023-03-11T03:42:34;92986.31;;;11.50;79.48
6435;BME280;3250;42.694;23.278;2023-03-11T03:44:59;92983.16;;;11.48;79.52
6435;BME280;3250;42.694;23.278;2023-03-11T03:47:25;92967.34;;;11.48;79.49
6435;BME280;3250;42.694;23.278;2023-03-11T03:49:50;92971.81;;;11.47;78.25
6435;BME280;3250;42.694;23.278;2023-03-11T03:52:16;92972.06;;;11.51;77.21
6435;BME280;3250;42.694;23.278;2023-03-11T03:54:41;92974.72;;;11.61;76.39
6435;BME280;3250;42.694;23.278;2023-03-11T03:57:07;92972.88;;;11.71;76.41
6435;BME280;3250;42.694;23.278;2023-03-11T03:59:32;92971.84;;;11.78;76.52
6435;BME280;3250;42.694;23.278;2023-03-11T04:01:58;92975.78;;;11.85;77.05
6435;BME280;3250;42.694;23.278;2023-03-11T04:04:23;92978.16;;;11.87;77.36
6435;BME280;3250;42.694;23.278;2023-03-11T04:06:49;92948.91;;;11.78;77.21
6435;BME280;3250;42.694;23.278;2023-03-11T04:09:14;92966.56;;;11.88;77.33
6435;BME280;3250;42.694;23.278;2023-03-11T04:11:40;92973.72;;;11.92;77.19
6435;BME280;3250;42.694;23.278;2023-03-11T04:14:05;92974.75;;;11.91;77.30
6435;BME280;3250;42.694;23.278;2023-03-11T04:16:31;92967.09;;;11.90;76.90
6435;BME280;3250;42.694;23.278;2023-03-11T04:18:56;92984.78;;;11.89;77.01
6435;BME280;3250;42.694;23.278;2023-03-11T04:21:22;92977.41;;;11.76;77.66
6435;BME280;3250;42.694;23.278;2023-03-11T04:23:48;92984.00;;;11.84;78.08
6435;BME280;3250;42.694;23.278;2023-03-11T04:26:13;92985.28;;;11.86;77.08
6435;BME280;3250;42.694;23.278;2023-03-11T04:28:39;92985.53;;;11.95;76.47
6435;BME280;3250;42.694;23.278;2023-03-11T04:31:04;92990.03;;;11.94;75.79
6435;BME280;3250;42.694;23.278;2023-03-11T04:33:30;92988.19;;;11.95;75.42
6435;BME280;3250;42.694;23.278;2023-03-11T04:35:55;92985.31;;;11.91;75.21
6435;BME280;3250;42.694;23.278;2023-03-11T04:38:21;92981.34;;;11.89;75.21
6435;BME280;3250;42.694;23.278;2023-03-11T04:40:46;92981.06;;;11.95;74.64
6435;BME280;3250;42.694;23.278;2023-03-11T04:43:12;92996.63;;;11.92;74.75
6435;BME280;3250;42.694;23.278;2023-03-11T04:45:38;92989.78;;;11.96;74.97
6435;BME280;3250;42.694;23.278;2023-03-11T04:48:04;92987.66;;;12.03;74.64
6435;BME280;3250;42.694;23.278;2023-03-11T04:50:29;92992.13;;;12.02;74.98
6435;BME280;3250;42.694;23.278;2023-03-11T04:52:55;92996.59;;;12.12;75.20
6435;BME280;3250;42.694;23.278;2023-03-11T04:55:21;93001.38;;;12.05;75.19
6435;BME280;3250;42.694;23.278;2023-03-11T04:57:46;92997.16;;;12.09;74.43
6435;BME280;3250;42.694;23.278;2023-03-11T05:00:13;93000.88;;;11.93;75.18
6435;BME280;3250;42.694;23.278;2023-03-11T05:02:40;93004.78;;;11.95;74.52
6435;BME280;3250;42.694;23.278;2023-03-11T05:05:07;92997.94;;;11.94;74.02
6435;BME280;3250;42.694;23.278;2023-03-11T05:07:34;93001.91;;;11.92;73.20
6435;BME280;3250;42.694;23.278;2023-03-11T05:10:00;93017.47;;;11.98;73.54
6435;BME280;3250;42.694;23.278;2023-03-11T05:12:25;93017.19;;;11.95;74.61
6435;BME280;3250;42.694;23.278;2023-03-11T05:14:50;93033.56;;;12.02;74.13
6435;BME280;3250;42.694;23.278;2023-03-11T05:17:16;93029.06;;;12.07;74.37
6435;BME280;3250;42.694;23.278;2023-03-11T05:19:43;93031.69;;;12.18;74.51
6435;BME280;3250;42.694;23.278;2023-03-11T05:22:09;93036.19;;;12.17;74.07
6435;BME280;3250;42.694;23.278;2023-03-11T05:24:35;93037.50;;;11.99;73.35
6435;BME280;3250;42.694;23.278;2023-03-11T05:27:00;93034.06;;;11.84;73.59
6435;BME280;3250;42.694;23.278;2023-03-11T05:29:26;93063.34;;;11.92;73.72
6435;BME280;3250;42.694;23.278;2023-03-11T05:31:52;93058.84;;;11.78;74.73
6435;BME280;3250;42.694;23.278;2023-03-11T05:34:17;93057.53;;;11.90;74.62
6435;BME280;3250;42.694;23.278;2023-03-11T05:36:43;93052.25;;;11.95;74.66
6435;BME280;3250;42.694;23.278;2023-03-11T05:39:09;93060.97;;;12.01;75.43
6435;BME280;3250;42.694;23.278;2023-03-11T05:41:35;93058.84;;;12.08;74.99
6435;BME280;3250;42.694;23.278;2023-03-11T05:44:01;93056.47;;;12.12;74.37
6435;BME280;3250;42.694;23.278;2023-03-11T05:46:27;93057.78;;;12.14;73.96
6435;BME280;3250;42.694;23.278;2023-03-11T05:48:52;93069.91;;;12.20;74.07
6435;BME280;3250;42.694;23.278;2023-03-11T05:51:18;93071.00;;;12.24;74.31
6435;BME280;3250;42.694;23.278;2023-03-11T05:53:45;93082.06;;;12.31;74.54
6435;BME280;3250;42.694;23.278;2023-03-11T05:56:13;93083.91;;;12.31;75.70
6435;BME280;3250;42.694;23.278;2023-03-11T05:58:40;93063.34;;;12.18;75.24
6435;BME280;3250;42.694;23.278;2023-03-11T06:01:09;93098.97;;;12.35;75.54
6435;BME280;3250;42.694;23.278;2023-03-11T06:03:36;93084.16;;;12.29;76.24
6435;BME280;3250;42.694;23.278;2023-03-11T06:06:03;93099.50;;;12.27;76.09
6435;BME280;3250;42.694;23.278;2023-03-11T06:08:29;93094.97;;;12.23;76.55
6435;BME280;3250;42.694;23.278;2023-03-11T06:11:03;93088.91;;;12.12;76.69
6435;BME280;3250;42.694;23.278;2023-03-11T06:13:29;93111.06;;;12.11;77.15
6435;BME280;3250;42.694;23.278;2023-03-11T06:15:54;93105.03;;;12.11;77.89
6435;BME280;3250;42.694;23.278;2023-03-11T06:18:20;93105.28;;;12.19;77.80
6435;BME280;3250;42.694;23.278;2023-03-11T06:20:45;93107.41;;;12.17;78.46
6435;BME280;3250;42.694;23.278;2023-03-11T06:23:11;93110.28;;;12.16;78.89
6435;BME280;3250;42.694;23.278;2023-03-11T06:25:36;93107.66;;;12.16;78.93
6435;BME280;3250;42.694;23.278;2023-03-11T06:28:01;93106.59;;;12.17;79.56
6435;BME280;3250;42.694;23.278;2023-03-11T06:30:27;93092.09;;;11.99;79.95
6435;BME280;3250;42.694;23.278;2023-03-11T06:32:52;93103.94;;;12.12;80.47
6435;BME280;3250;42.694;23.278;2023-03-11T06:35:19;93102.09;;;12.07;80.65
6435;BME280;3250;42.694;23.278;2023-03-11T06:37:45;93099.19;;;11.98;81.32
6435;BME280;3250;42.694;23.278;2023-03-11T06:40:11;93103.69;;;11.98;81.99
6435;BME280;3250;42.694;23.278;2023-03-11T06:42:36;93110.78;;;11.97;81.93
6435;BME280;3250;42.694;23.278;2023-03-11T06:45:02;93114.50;;;12.01;81.29
6435;BME280;3250;42.694;23.278;2023-03-11T06:47:27;93095.50;;;11.94;81.24
6435;BME280;3250;42.694;23.278;2023-03-11T06:49:53;93106.84;;;12.05;80.54
6435;BME280;3250;42.694;23.278;2023-03-11T06:52:18;93111.88;;;12.06;79.84
6435;BME280;3250;42.694;23.278;2023-03-11T06:54:44;93111.06;;;12.06;79.94
6435;BME280;3250;42.694;23.278;2023-03-11T06:57:10;93108.44;;;12.06;80.13
6435;BME280;3250;42.694;23.278;2023-03-11T06:59:35;93120.56;;;12.12;79.91
6435;BME280;3250;42.694;23.278;2023-03-11T07:02:04;93121.63;;;12.16;79.67
6435;BME280;3250;42.694;23.278;2023-03-11T07:04:30;93117.69;;;12.19;78.97
6435;BME280;3250;42.694;23.278;2023-03-11T07:06:56;93109.75;;;12.14;79.26
6435;BME280;3250;42.694;23.278;2023-03-11T07:09:22;93104.50;;;12.08;79.30
6435;BME280;3250;42.694;23.278;2023-03-11T07:11:50;93113.69;;;12.11;79.77
6435;BME280;3250;42.694;23.278;2023-03-11T07:14:16;93086.81;;;12.04;79.37
6435;BME280;3250;42.694;23.278;2023-03-11T07:16:41;93103.94;;;12.12;79.01
6435;BME280;3250;42.694;23.278;2023-03-11T07:19:08;93101.56;;;12.20;79.26
6435;BME280;3250;42.694;23.278;2023-03-11T07:21:34;93109.50;;;12.30;79.99
6435;BME280;3250;42.694;23.278;2023-03-11T07:24:01;93108.44;;;12.46;79.38
6435;BME280;3250;42.694;23.278;2023-03-11T07:26:28;93103.16;;;12.52;78.71
6435;BME280;3250;42.694;23.278;2023-03-11T07:28:54;93115.03;;;12.59;77.97
6435;BME280;3250;42.694;23.278;2023-03-11T07:31:23;93110.53;;;12.60;77.35
6435;BME280;3250;42.694;23.278;2023-03-11T07:33:49;93107.09;;;12.79;77.28
6435;BME280;3250;42.694;23.278;2023-03-11T07:36:17;93093.81;;;13.05;77.36
6435;BME280;3250;42.694;23.278;2023-03-11T07:38:44;93072.19;;;13.62;77.15
6435;BME280;3250;42.694;23.278;2023-03-11T07:41:11;93092.38;;;14.89;73.89
6435;BME280;3250;42.694;23.278;2023-03-11T07:43:38;93071.53;;;15.72;69.16
6435;BME280;3250;42.694;23.278;2023-03-11T07:46:04;93080.25;;;16.29;65.03
6435;BME280;3250;42.694;23.278;2023-03-11T07:48:30;93084.75;;;16.80;63.64
6435;BME280;3250;42.694;23.278;2023-03-11T07:51:03;93081.38;;;17.34;61.86
6435;BME280;3250;42.694;23.278;2023-03-11T07:53:29;93078.63;;;18.02;60.60
6435;BME280;3250;42.694;23.278;2023-03-11T07:55:56;93075.38;;;18.64;58.49
6435;BME280;3250;42.694;23.278;2023-03-11T07:58:21;93067.00;;;19.10;56.09
6435;BME280;3250;42.694;23.278;2023-03-11T08:00:46;93049.34;;;19.40;53.14
6435;BME280;3250;42.694;23.278;2023-03-11T08:03:12;93047.94;;;19.34;52.04
6435;BME280;3250;42.694;23.278;2023-03-11T08:05:38;93047.00;;;19.47;52.69
6435;BME280;3250;42.694;23.278;2023-03-11T08:08:03;93036.88;;;19.57;51.67
6435;BME280;3250;42.694;23.278;2023-03-11T08:10:28;93028.56;;;19.68;53.16
6435;BME280;3250;42.694;23.278;2023-03-11T08:12:54;93012.88;;;19.92;50.23
6435;BME280;3250;42.694;23.278;2023-03-11T08:15:19;93025.63;;;20.04;49.35
6435;BME280;3250;42.694;23.278;2023-03-11T08:17:44;93016.16;;;19.54;51.11
6435;BME280;3250;42.694;23.278;2023-03-11T08:20:10;93004.84;;;19.66;51.72
6435;BME280;3250;42.694;23.278;2023-03-11T08:22:36;93009.72;;;19.90;50.47
6435;BME280;3250;42.694;23.278;2023-03-11T08:25:01;93009.72;;;20.07;48.96
6435;BME280;3250;42.694;23.278;2023-03-11T08:27:28;92987.56;;;19.55;48.99
6435;BME280;3250;42.694;23.278;2023-03-11T08:29:53;92948.84;;;19.09;51.10
6435;BME280;3250;42.694;23.278;2023-03-11T08:32:19;92978.44;;;19.56;50.96
6435;BME280;3250;42.694;23.278;2023-03-11T08:34:44;92988.22;;;19.86;49.76
6435;BME280;3250;42.694;23.278;2023-03-11T08:37:10;92984.88;;;20.24;50.69
6435;BME280;3250;42.694;23.278;2023-03-11T08:39:35;92959.13;;;20.37;48.83
6435;BME280;3250;42.694;23.278;2023-03-11T08:42:00;92989.34;;;20.92;48.57
6435;BME280;3250;42.694;23.278;2023-03-11T08:44:27;92983.56;;;21.20;47.71
6435;BME280;3250;42.694;23.278;2023-03-11T08:46:53;92983.97;;;21.30;45.62
6435;BME280;3250;42.694;23.278;2023-03-11T08:49:18;92972.59;;;21.42;45.85
6435;BME280;3250;42.694;23.278;2023-03-11T08:51:44;92958.09;;;21.43;46.63
6435;BME280;3250;42.694;23.278;2023-03-11T08:54:09;92981.44;;;21.84;46.33
6435;BME280;3250;42.694;23.278;2023-03-11T08:56:35;92973.97;;;21.48;43.98
6435;BME280;3250;42.694;23.278;2023-03-11T08:59:00;92975.22;;;20.83;45.13
6435;BME280;3250;42.694;23.278;2023-03-11T09:01:26;92974.03;;;21.01;46.43
6435;BME280;3250;42.694;23.278;2023-03-11T09:03:53;92949.41;;;20.79;46.42
6435;BME280;3250;42.694;23.278;2023-03-11T09:06:19;92972.16;;;20.93;46.80
6435;BME280;3250;42.694;23.278;2023-03-11T09:08:46;92950.63;;;20.43;45.45
6435;BME280;3250;42.694;23.278;2023-03-11T09:11:12;92974.63;;;20.60;45.86
6435;BME280;3250;42.694;23.278;2023-03-11T09:13:38;92964.78;;;20.09;47.68
6435;BME280;3250;42.694;23.278;2023-03-11T09:16:12;92961.81;;;19.68;47.38
6435;BME280;3250;42.694;23.278;2023-03-11T09:18:38;92965.91;;;19.56;48.02
6435;BME280;3250;42.694;23.278;2023-03-11T09:21:03;92960.13;;;19.80;49.66
6435;BME280;3250;42.694;23.278;2023-03-11T09:23:29;92957.75;;;19.79;48.06
6435;BME280;3250;42.694;23.278;2023-03-11T09:25:54;92946.28;;;19.70;47.95
6435;BME280;3250;42.694;23.278;2023-03-11T09:28:20;92927.69;;;19.39;47.81
6435;BME280;3250;42.694;23.278;2023-03-11T09:30:45;92941.34;;;19.29;49.61
6435;BME280;3250;42.694;23.278;2023-03-11T09:33:10;92945.13;;;19.36;48.59
6435;BME280;3250;42.694;23.278;2023-03-11T09:35:39;92944.81;;;19.38;50.08
6435;BME280;3250;42.694;23.278;2023-03-11T09:38:04;92912.50;;;19.48;49.99
6435;BME280;3250;42.694;23.278;2023-03-11T09:52:12;92928.94;;;20.19;49.67
6435;BME280;3250;42.694;23.278;2023-03-11T09:54:40;92937.13;;;20.31;48.81
6435;BME280;3250;42.694;23.278;2023-03-11T09:57:12;92918.41;;;20.31;45.27
6435;BME280;3250;42.694;23.278;2023-03-11T09:59:40;92923.91;;;20.17;46.01
6435;BME280;3250;42.694;23.278;2023-03-11T10:02:13;92922.72;;;19.80;46.94
6435;BME280;3250;42.694;23.278;2023-03-11T10:07:22;92926.00;;;19.43;47.07
6435;BME280;3250;42.694;23.278;2023-03-11T10:09:50;92935.09;;;19.42;47.02
6435;BME280;3250;42.694;23.278;2023-03-11T10:20:24;92948.47;;;18.23;49.42
6435;BME280;3250;42.694;23.278;2023-03-11T10:23:18;92948.41;;;17.92;50.03
6435;BME280;3250;42.694;23.278;2023-03-11T10:28:35;92951.44;;;17.77;51.14
6435;BME280;3250;42.694;23.278;2023-03-11T10:31:42;92948.03;;;17.85;51.70
6435;BME280;3250;42.694;23.278;2023-03-11T10:34:25;92933.88;;;17.76;51.36
6435;BME280;3250;42.694;23.278;2023-03-11T10:39:46;92946.53;;;17.57;50.53
6435;BME280;3250;42.694;23.278;2023-03-11T10:42:15;92945.13;;;17.37;51.63
6435;BME280;3250;42.694;23.278;2023-03-11T10:44:41;92940.25;;;17.17;52.48
6435;BME280;3250;42.694;23.278;2023-03-11T10:47:21;92944.50;;;16.90;52.02
6435;BME280;3250;42.694;23.278;2023-03-11T10:49:48;92954.50;;;16.39;53.57
6435;BME280;3250;42.694;23.278;2023-03-11T10:52:13;92957.69;;;16.08;55.37
6435;BME280;3250;42.694;23.278;2023-03-11T10:54:45;92940.81;;;15.85;56.69
6435;BME280;3250;42.694;23.278;2023-03-11T10:57:33;92959.91;;;16.01;57.85
6435;BME280;3250;42.694;23.278;2023-03-11T11:00:01;92941.16;;;15.98;55.87
6435;BME280;3250;42.694;23.278;2023-03-11T11:02:38;92963.69;;;16.14;55.75
6435;BME280;3250;42.694;23.278;2023-03-11T11:07:46;92955.28;;;16.39;56.82
6435;BME280;3250;42.694;23.278;2023-03-11T11:16:02;92944.38;;;16.95;56.28
6435;BME280;3250;42.694;23.278;2023-03-11T11:18:32;92942.53;;;17.10;54.81
6435;BME280;3250;42.694;23.278;2023-03-11T11:21:49;92931.47;;;17.16;55.25
6435;BME280;3250;42.694;23.278;2023-03-11T11:26:42;92920.00;;;16.93;54.48
6435;BME280;3250;42.694;23.278;2023-03-11T11:29:26;92909.16;;;16.90;54.51
6435;BME280;3250;42.694;23.278;2023-03-11T11:31:52;92905.06;;;16.84;52.68
6435;BME280;3250;42.694;23.278;2023-03-11T11:34:34;92903.88;;;16.63;52.05
6435;BME280;3250;42.694;23.278;2023-03-11T11:37:04;92908.34;;;16.35;52.59
6435;BME280;3250;42.694;23.278;2023-03-11T11:39:45;92895.38;;;16.19;54.36
6435;BME280;3250;42.694;23.278;2023-03-11T11:42:17;92898.63;;;16.30;54.30
6435;BME280;3250;42.694;23.278;2023-03-11T11:44:50;92890.19;;;16.42;54.68
6435;BME280;3250;42.694;23.278;2023-03-11T11:47:22;92883.28;;;16.41;54.29
6435;BME280;3250;42.694;23.278;2023-03-11T11:49:53;92875.63;;;16.39;55.80
6435;BME280;3250;42.694;23.278;2023-03-11T11:52:26;92867.84;;;16.70;57.44
6435;BME280;3250;42.694;23.278;2023-03-11T11:57:23;92876.13;;;17.18;53.48
6435;BME280;3250;42.694;23.278;2023-03-11T11:59:49;92869.72;;;17.19;50.83
6435;BME280;3250;42.694;23.278;2023-03-11T12:04:51;92878.66;;;17.23;50.56
6435;BME280;3250;42.694;23.278;2023-03-11T12:15:19;92837.69;;;17.24;49.31
6435;BME280;3250;42.694;23.278;2023-03-11T12:17:49;92841.13;;;17.03;48.20
6435;BME280;3250;42.694;23.278;2023-03-11T12:20:35;92835.19;;;17.06;48.43
6435;BME280;3250;42.694;23.278;2023-03-11T12:26:17;92852.50;;;17.39;47.74
6435;BME280;3250;42.694;23.278;2023-03-11T12:28:46;92852.88;;;17.46;48.02
6435;BME280;3250;42.694;23.278;2023-03-11T12:31:14;92850.34;;;17.41;48.39
6435;BME280;3250;42.694;23.278;2023-03-11T12:33:44;92854.69;;;17.37;49.19
6435;BME280;3250;42.694;23.278;2023-03-11T12:36:40;92859.53;;;17.35;50.11
6435;BME280;3250;42.694;23.278;2023-03-11T12:39:30;92847.53;;;17.24;50.46
6435;BME280;3250;42.694;23.278;2023-03-11T12:42:16;92860.09;;;16.60;51.50
6435;BME280;3250;42.694;23.278;2023-03-11T12:44:42;92856.84;;;15.76;53.64
6435;BME280;3250;42.694;23.278;2023-03-11T12:49:41;92864.88;;;15.57;55.37
6435;BME280;3250;42.694;23.278;2023-03-11T12:54:37;92874.78;;;15.14;57.22
6435;BME280;3250;42.694;23.278;2023-03-11T13:09:02;92905.16;;;14.84;59.02
6435;BME280;3250;42.694;23.278;2023-03-11T13:16:49;92931.44;;;15.18;59.01
6435;BME280;3250;42.694;23.278;2023-03-11T13:19:35;92950.06;;;15.32;59.34
6435;BME280;3250;42.694;23.278;2023-03-11T13:22:04;92949.88;;;15.28;58.80
6435;BME280;3250;42.694;23.278;2023-03-11T13:29:48;92970.63;;;15.02;63.43
6435;BME280;3250;42.694;23.278;2023-03-11T13:37:37;92996.25;;;14.02;70.56
6435;BME280;3250;42.694;23.278;2023-03-11T13:40:48;93011.25;;;13.38;72.83
6435;BME280;3250;42.694;23.278;2023-03-11T13:43:23;92999.56;;;12.95;75.36
6435;BME280;3250;42.694;23.278;2023-03-11T13:46:05;93005.44;;;12.77;76.30
6435;BME280;3250;42.694;23.278;2023-03-11T13:48:39;93021.50;;;12.80;77.06
6435;BME280;3250;42.694;23.278;2023-03-11T13:53:44;93021.31;;;12.57;78.73
6435;BME280;3250;42.694;23.278;2023-03-11T13:58:48;92996.59;;;12.27;80.43
6435;BME280;3250;42.694;23.278;2023-03-11T14:01:16;92996.34;;;12.24;79.25
6435;BME280;3250;42.694;23.278;2023-03-11T14:03:43;92982.88;;;12.35;80.67
6435;BME280;3250;42.694;23.278;2023-03-11T14:06:18;92990.22;;;12.43;81.14
6435;BME280;3250;42.694;23.278;2023-03-11T14:08:52;93003.66;;;12.62;80.31
6435;BME280;3250;42.694;23.278;2023-03-11T14:11:18;92977.25;;;12.57;80.37
6435;BME280;3250;42.694;23.278;2023-03-11T14:13:48;92997.50;;;12.72;80.36
6435;BME280;3250;42.694;23.278;2023-03-11T14:16:28;92994.41;;;12.60;80.57
6435;BME280;3250;42.694;23.278;2023-03-11T14:19:13;93006.78;;;12.69;79.80
6435;BME280;3250;42.694;23.278;2023-03-11T14:21:43;93008.88;;;12.72;80.19
6435;BME280;3250;42.694;23.278;2023-03-11T14:24:18;93022.38;;;12.56;80.19
6435;BME280;3250;42.694;23.278;2023-03-11T14:26:45;93002.09;;;12.51;80.89
6435;BME280;3250;42.694;23.278;2023-03-11T14:29:17;93020.06;;;12.44;80.02
6435;BME280;3250;42.694;23.278;2023-03-11T14:31:44;92994.19;;;12.41;79.67
6435;BME280;3250;42.694;23.278;2023-03-11T14:34:21;93027.63;;;12.66;79.95
6435;BME280;3250;42.694;23.278;2023-03-11T14:36:48;93019.72;;;12.66;79.60
6435;BME280;3250;42.694;23.278;2023-03-11T14:39:37;93036.91;;;12.53;79.30
6435;BME280;3250;42.694;23.278;2023-03-11T14:42:17;93041.34;;;12.63;79.99
6435;BME280;3250;42.694;23.278;2023-03-11T14:49:57;93054.63;;;12.32;78.54
6435;BME280;3250;42.694;23.278;2023-03-11T14:52:35;93062.53;;;12.37;77.34
6435;BME280;3250;42.694;23.278;2023-03-11T14:55:05;93037.47;;;11.94;77.94
6435;BME280;3250;42.694;23.278;2023-03-11T14:58:05;93070.44;;;11.97;79.86
6435;BME280;3250;42.694;23.278;2023-03-11T15:00:42;93080.66;;;11.63;82.01
6435;BME280;3250;42.694;23.278;2023-03-11T15:03:23;93068.22;;;11.43;83.19